sensor_id;sensor_type;location;lat;lon;timestamp;pressure;altitude;pressure_sealevel;temperature;humidity
12247;BME280;6186;52.022;4.692;2022-07-06T00:01:15;102685.66;;;15.70;56.99
12247;BME280;6186;52.022;4.692;2022-07-06T00:03:40;102688.31;;;15.70;56.97
12247;BME280;6186;52.022;4.692;2022-07-06T00:06:05;102683.97;;;15.66;56.80
12247;BME280;6186;52.022;4.692;2022-07-06T00:08:30;102692.81;;;15.66;57.17
12247;BME280;6186;52.022;4.692;2022-07-06T00:10:56;102681.38;;;15.61;57.04
12247;BME280;6186;52.022;4.692;2022-07-06T00:13:21;102692.03;;;15.60;57.32
12247;BME280;6186;52.022;4.692;2022-07-06T00:15:46;102688.47;;;15.61;57.08
12247;BME280;6186;52.022;4.692;2022-07-06T00:18:12;102680.53;;;15.58;57.30
12247;BME280;6186;52.022;4.692;2022-07-06T00:20:37;102685.00;;;15.56;57.35
12247;BME280;6186;52.022;4.692;2022-07-06T00:23:02;102689.50;;;15.52;57.23
12247;BME280;6186;52.022;4.692;2022-07-06T00:25:28;102678.91;;;15.51;57.05
12247;BME280;6186;52.022;4.692;2022-07-06T00:27:53;102677.16;;;15.50;57.35
12247;BME280;6186;52.022;4.692;2022-07-06T00:30:18;102686.00;;;15.49;57.35
12247;BME280;6186;52.022;4.692;2022-07-06T00:32:44;102664.91;;;15.40;57.48
12247;BME280;6186;52.022;4.692;2022-07-06T00:35:09;102672.84;;;15.43;57.57
12247;BME280;6186;52.022;4.692;2022-07-06T00:37:34;102676.41;;;15.42;57.35
12247;BME280;6186;52.022;4.692;2022-07-06T00:40:00;102670.22;;;15.37;57.55
12247;BME280;6186;52.022;4.692;2022-07-06T00:42:25;102669.34;;;15.38;57.37
12247;BME280;6186;52.022;4.692;2022-07-06T00:44:50;102676.41;;;15.39;57.54
12247;BME280;6186;52.022;4.692;2022-07-06T00:47:16;102667.59;;;15.37;57.58
12247;BME280;6186;52.022;4.692;2022-07-06T00:49:41;102687.03;;;15.37;57.50
12247;BME280;6186;52.022;4.692;2022-07-06T00:52:25;102677.31;;;15.38;57.71
12247;BME280;6186;52.022;4.692;2022-07-06T00:54:51;102673.88;;;15.33;57.97
12247;BME280;6186;52.022;4.692;2022-07-06T00:57:17;102679.97;;;15.38;57.86
12247;BME280;6186;52.022;4.692;2022-07-06T00:59:43;102670.25;;;15.35;57.95
12247;BME280;6186;52.022;4.692;2022-07-06T01:02:08;102680.03;;;15.33;57.77
12247;BME280;6186;52.022;4.692;2022-07-06T01:04:33;102682.72;;;15.32;57.83
12247;BME280;6186;52.022;4.692;2022-07-06T01:07:00;102677.47;;;15.29;57.99
12247;BME280;6186;52.022;4.692;2022-07-06T01:09:25;102664.31;;;15.21;57.83
12247;BME280;6186;52.022;4.692;2022-07-06T01:11:52;102677.53;;;15.24;57.82
12247;BME280;6186;52.022;4.692;2022-07-06T01:14:17;102678.44;;;15.23;57.96
12247;BME280;6186;52.022;4.692;2022-07-06T01:16:43;102674.03;;;15.21;58.15
12247;BME280;6186;52.022;4.692;2022-07-06T01:19:08;102667.00;;;15.20;58.12
12247;BME280;6186;52.022;4.692;2022-07-06T01:21:37;102660.00;;;15.13;58.21
12247;BME280;6186;52.022;4.692;2022-07-06T01:24:03;102664.41;;;15.15;58.05
12247;BME280;6186;52.022;4.692;2022-07-06T01:26:29;102667.03;;;15.17;58.29
12247;BME280;6186;52.022;4.692;2022-07-06T01:28:54;102667.94;;;15.16;58.26
12247;BME280;6186;52.022;4.692;2022-07-06T01:31:22;102664.44;;;15.14;58.23
12247;BME280;6186;52.022;4.692;2022-07-06T01:33:49;102674.19;;;15.12;58.21
12247;BME280;6186;52.022;4.692;2022-07-06T01:36:15;102676.88;;;15.10;58.38
12247;BME280;6186;52.022;4.692;2022-07-06T01:38:49;102673.34;;;15.08;58.55
12247;BME280;6186;52.022;4.692;2022-07-06T01:41:15;102666.31;;;15.05;58.71
12247;BME280;6186;52.022;4.692;2022-07-06T01:43:40;102651.47;;;14.92;58.53
12247;BME280;6186;52.022;4.692;2022-07-06T01:46:06;102652.38;;;14.90;58.64
12247;BME280;6186;52.022;4.692;2022-07-06T01:48:31;102667.25;;;15.01;58.75
12247;BME280;6186;52.022;4.692;2022-07-06T01:50:57;102667.25;;;15.01;58.86
12247;BME280;6186;52.022;4.692;2022-07-06T01:53:22;102668.13;;;15.02;58.81
12247;BME280;6186;52.022;4.692;2022-07-06T01:55:47;102673.44;;;15.02;58.80
12247;BME280;6186;52.022;4.692;2022-07-06T01:58:13;102675.19;;;15.03;58.98
12247;BME280;6186;52.022;4.692;2022-07-06T02:00:38;102669.00;;;15.01;58.88
12247;BME280;6186;52.022;4.692;2022-07-06T02:03:03;102673.47;;;14.99;59.10
12247;BME280;6186;52.022;4.692;2022-07-06T02:05:28;102662.00;;;14.98;59.02
12247;BME280;6186;52.022;4.692;2022-07-06T02:07:54;102660.25;;;14.96;59.00
12247;BME280;6186;52.022;4.692;2022-07-06T02:10:19;102662.03;;;14.95;59.07
12247;BME280;6186;52.022;4.692;2022-07-06T02:12:44;102662.06;;;14.94;58.98
12247;BME280;6186;52.022;4.692;2022-07-06T02:15:10;102650.56;;;14.93;59.17
12247;BME280;6186;52.022;4.692;2022-07-06T02:17:35;102652.38;;;14.90;59.21
12247;BME280;6186;52.022;4.692;2022-07-06T02:20:00;102660.38;;;14.88;59.15
12247;BME280;6186;52.022;4.692;2022-07-06T02:22:26;102658.66;;;14.84;59.23
12247;BME280;6186;52.022;4.692;2022-07-06T02:24:51;102668.38;;;14.85;59.13
12247;BME280;6186;52.022;4.692;2022-07-06T02:27:19;102661.31;;;14.84;59.21
12247;BME280;6186;52.022;4.692;2022-07-06T02:29:44;102667.53;;;14.83;59.30
12247;BME280;6186;52.022;4.692;2022-07-06T02:32:09;102668.41;;;14.82;59.60
12247;BME280;6186;52.022;4.692;2022-07-06T02:34:35;102661.34;;;14.81;59.40
12247;BME280;6186;52.022;4.692;2022-07-06T02:37:00;102662.31;;;14.76;59.60
12247;BME280;6186;52.022;4.692;2022-07-06T02:39:25;102666.69;;;14.78;59.58
12247;BME280;6186;52.022;4.692;2022-07-06T02:41:51;102663.16;;;14.76;59.73
12247;BME280;6186;52.022;4.692;2022-07-06T02:44:16;102659.66;;;14.76;59.69
12247;BME280;6186;52.022;4.692;2022-07-06T02:46:41;102663.22;;;14.73;59.70
12247;BME280;6186;52.022;4.692;2022-07-06T02:49:07;102670.25;;;14.74;59.66
12247;BME280;6186;52.022;4.692;2022-07-06T02:51:32;102664.09;;;14.72;59.78
12247;BME280;6186;52.022;4.692;2022-07-06T02:53:57;102663.25;;;14.72;59.96
12247;BME280;6186;52.022;4.692;2022-07-06T02:56:23;102664.22;;;14.66;59.81
12247;BME280;6186;52.022;4.692;2022-07-06T02:58:48;102660.69;;;14.64;60.05
12247;BME280;6186;52.022;4.692;2022-07-06T03:01:13;102661.53;;;14.68;59.78
12247;BME280;6186;52.022;4.692;2022-07-06T03:03:38;102661.56;;;14.65;59.90
12247;BME280;6186;52.022;4.692;2022-07-06T03:06:04;102669.50;;;14.66;60.09
12247;BME280;6186;52.022;4.692;2022-07-06T03:08:29;102662.47;;;14.64;60.26
12247;BME280;6186;52.022;4.692;2022-07-06T03:10:54;102662.50;;;14.62;60.29
12247;BME280;6186;52.022;4.692;2022-07-06T03:13:20;102667.78;;;14.62;60.34
12247;BME280;6186;52.022;4.692;2022-07-06T03:15:45;102676.63;;;14.61;60.35
12247;BME280;6186;52.022;4.692;2022-07-06T03:18:10;102673.97;;;14.61;60.27
12247;BME280;6186;52.022;4.692;2022-07-06T03:20:36;102674.88;;;14.62;60.58
12247;BME280;6186;52.022;4.692;2022-07-06T03:23:01;102669.59;;;14.60;60.54
12247;BME280;6186;52.022;4.692;2022-07-06T03:25:26;102670.41;;;14.64;60.73
12247;BME280;6186;52.022;4.692;2022-07-06T03:27:51;102661.56;;;14.65;60.64
12247;BME280;6186;52.022;4.692;2022-07-06T03:30:17;102659.81;;;14.64;60.76
12247;BME280;6186;52.022;4.692;2022-07-06T03:32:42;102657.25;;;14.58;60.83
12247;BME280;6186;52.022;4.692;2022-07-06T03:35:08;102658.91;;;14.66;61.20
12247;BME280;6186;52.022;4.692;2022-07-06T03:37:33;102661.59;;;14.63;61.09
12247;BME280;6186;52.022;4.692;2022-07-06T03:39:59;102673.03;;;14.68;61.31
12247;BME280;6186;52.022;4.692;2022-07-06T03:42:24;102669.47;;;14.69;61.21
12247;BME280;6186;52.022;4.692;2022-07-06T03:44:49;102665.00;;;14.73;61.69
12247;BME280;6186;52.022;4.692;2022-07-06T03:47:15;102662.28;;;14.77;61.78
12247;BME280;6186;52.022;4.692;2022-07-06T03:49:40;102658.66;;;14.84;61.88
12247;BME280;6186;52.022;4.692;2022-07-06T03:52:05;102656.81;;;14.89;62.09
12247;BME280;6186;52.022;4.692;2022-07-06T03:54:31;102657.63;;;14.94;62.04
12247;BME280;6186;52.022;4.692;2022-07-06T03:56:56;102641.72;;;14.94;62.22
12247;BME280;6186;52.022;4.692;2022-07-06T03:59:24;102643.44;;;14.98;62.34
12247;BME280;6186;52.022;4.692;2022-07-06T04:01:52;102660.09;;;15.06;62.65
12247;BME280;6186;52.022;4.692;2022-07-06T04:04:18;102664.47;;;15.12;62.49
12247;BME280;6186;52.022;4.692;2022-07-06T04:06:46;102661.72;;;15.17;62.48
12247;BME280;6186;52.022;4.692;2022-07-06T04:09:11;102659.91;;;15.19;62.66
12247;BME280;6186;52.022;4.692;2022-07-06T04:11:37;102660.81;;;15.19;63.05
12247;BME280;6186;52.022;4.692;2022-07-06T04:14:02;102656.28;;;15.24;62.70
12247;BME280;6186;52.022;4.692;2022-07-06T04:16:27;102656.25;;;15.26;63.07
12247;BME280;6186;52.022;4.692;2022-07-06T04:18:52;102666.78;;;15.32;63.25
12247;BME280;6186;52.022;4.692;2022-07-06T04:21:18;102662.34;;;15.34;63.23
12247;BME280;6186;52.022;4.692;2022-07-06T04:23:43;102667.59;;;15.37;63.15
12247;BME280;6186;52.022;4.692;2022-07-06T04:26:09;102664.91;;;15.40;63.59
12247;BME280;6186;52.022;4.692;2022-07-06T04:28:34;102661.31;;;15.41;63.49
12247;BME280;6186;52.022;4.692;2022-07-06T04:30:59;102666.63;;;15.44;63.46
12247;BME280;6186;52.022;4.692;2022-07-06T04:33:25;102662.19;;;15.46;63.51
12247;BME280;6186;52.022;4.692;2022-07-06T04:35:50;102656.81;;;15.49;64.02
12247;BME280;6186;52.022;4.692;2022-07-06T04:38:15;102652.41;;;15.48;64.03
12247;BME280;6186;52.022;4.692;2022-07-06T04:40:41;102657.63;;;15.52;64.20
12247;BME280;6186;52.022;4.692;2022-07-06T04:43:06;102665.56;;;15.54;64.28
12247;BME280;6186;52.022;4.692;2022-07-06T04:45:32;102647.16;;;15.45;64.09
12247;BME280;6186;52.022;4.692;2022-07-06T04:47:57;102669.03;;;15.59;64.40
12247;BME280;6186;52.022;4.692;2022-07-06T04:50:23;102670.72;;;15.64;64.64
12247;BME280;6186;52.022;4.692;2022-07-06T04:52:48;102667.16;;;15.65;64.62
12247;BME280;6186;52.022;4.692;2022-07-06T04:55:13;102671.53;;;15.68;64.57
12247;BME280;6186;52.022;4.692;2022-07-06T04:57:40;102671.53;;;15.68;64.74
12247;BME280;6186;52.022;4.692;2022-07-06T05:00:06;102673.25;;;15.72;64.64
12247;BME280;6186;52.022;4.692;2022-07-06T05:02:32;102672.31;;;15.73;64.93
12247;BME280;6186;52.022;4.692;2022-07-06T05:04:57;102682.06;;;15.74;64.84
12247;BME280;6186;52.022;4.692;2022-07-06T05:07:22;102673.19;;;15.75;64.89
12247;BME280;6186;52.022;4.692;2022-07-06T05:09:48;102670.53;;;15.76;64.97
12247;BME280;6186;52.022;4.692;2022-07-06T05:12:13;102675.84;;;15.76;65.18
12247;BME280;6186;52.022;4.692;2022-07-06T05:14:38;102685.50;;;15.79;65.08
12247;BME280;6186;52.022;4.692;2022-07-06T05:17:04;102685.50;;;15.79;65.32
12247;BME280;6186;52.022;4.692;2022-07-06T05:19:29;102680.19;;;15.79;65.17
12247;BME280;6186;52.022;4.692;2022-07-06T05:21:54;102679.31;;;15.78;65.42
12247;BME280;6186;52.022;4.692;2022-07-06T05:24:20;102690.75;;;15.83;65.42
12247;BME280;6186;52.022;4.692;2022-07-06T05:26:45;102695.09;;;15.87;65.62
12247;BME280;6186;52.022;4.692;2022-07-06T05:29:11;102686.19;;;15.90;65.84
12247;BME280;6186;52.022;4.692;2022-07-06T05:31:36;102689.69;;;15.92;65.95
12247;BME280;6186;52.022;4.692;2022-07-06T05:34:01;102694.97;;;15.93;65.88
12247;BME280;6186;52.022;4.692;2022-07-06T05:36:27;102694.09;;;15.94;65.86
12247;BME280;6186;52.022;4.692;2022-07-06T05:38:52;102698.44;;;15.98;66.17
12247;BME280;6186;52.022;4.692;2022-07-06T05:41:17;102689.56;;;15.99;65.94
12247;BME280;6186;52.022;4.692;2022-07-06T05:43:43;102666.78;;;15.86;66.11
12247;BME280;6186;52.022;4.692;2022-07-06T05:46:08;102676.31;;;15.98;66.43
12247;BME280;6186;52.022;4.692;2022-07-06T05:48:33;102696.53;;;16.07;66.66
12247;BME280;6186;52.022;4.692;2022-07-06T05:51:17;102690.25;;;16.09;66.42
12247;BME280;6186;52.022;4.692;2022-07-06T05:53:42;102665.69;;;15.98;66.67
12247;BME280;6186;52.022;4.692;2022-07-06T05:56:08;102689.31;;;16.13;66.98
12247;BME280;6186;52.022;4.692;2022-07-06T05:58:33;102678.66;;;16.16;67.01
12247;BME280;6186;52.022;4.692;2022-07-06T06:00:59;102685.63;;;16.20;66.85
12247;BME280;6186;52.022;4.692;2022-07-06T06:03:24;102689.13;;;16.22;67.16
12247;BME280;6186;52.022;4.692;2022-07-06T06:05:50;102691.75;;;16.25;67.19
12247;BME280;6186;52.022;4.692;2022-07-06T06:08:16;102693.44;;;16.29;67.16
12247;BME280;6186;52.022;4.692;2022-07-06T06:10:41;102692.44;;;16.33;67.30
12247;BME280;6186;52.022;4.692;2022-07-06T06:13:06;102703.03;;;16.36;67.66
12247;BME280;6186;52.022;4.692;2022-07-06T06:15:32;102691.50;;;16.39;67.36
12247;BME280;6186;52.022;4.692;2022-07-06T06:17:57;102701.13;;;16.43;67.84
12247;BME280;6186;52.022;4.692;2022-07-06T06:20:23;102696.66;;;16.45;67.94
12247;BME280;6186;52.022;4.692;2022-07-06T06:22:53;102694.00;;;16.45;68.07
12247;BME280;6186;52.022;4.692;2022-07-06T06:25:53;102683.34;;;16.46;67.78
12247;BME280;6186;52.022;4.692;2022-07-06T06:28:12;102698.31;;;16.53;68.04
12247;BME280;6186;52.022;4.692;2022-07-06T06:30:38;102700.00;;;16.57;68.03
12247;BME280;6186;52.022;4.692;2022-07-06T06:33:15;102692.75;;;16.64;68.38
12247;BME280;6186;52.022;4.692;2022-07-06T06:35:46;102699.72;;;16.69;68.55
12247;BME280;6186;52.022;4.692;2022-07-06T06:38:15;102693.44;;;16.73;68.66
12247;BME280;6186;52.022;4.692;2022-07-06T06:40:43;102704.88;;;16.78;68.97
12247;BME280;6186;52.022;4.692;2022-07-06T06:43:09;102695.00;;;16.83;68.89
12247;BME280;6186;52.022;4.692;2022-07-06T06:45:34;102691.34;;;16.89;69.11
12247;BME280;6186;52.022;4.692;2022-07-06T06:48:00;102692.22;;;16.89;69.30
12247;BME280;6186;52.022;4.692;2022-07-06T06:50:25;102702.66;;;16.99;69.61
12247;BME280;6186;52.022;4.692;2022-07-06T06:52:53;102694.50;;;17.06;69.65
12247;BME280;6186;52.022;4.692;2022-07-06T06:55:18;102709.38;;;17.15;69.99
12247;BME280;6186;52.022;4.692;2022-07-06T06:57:44;102701.19;;;17.24;70.08
12247;BME280;6186;52.022;4.692;2022-07-06T07:00:10;102708.16;;;17.29;69.96
12247;BME280;6186;52.022;4.692;2022-07-06T07:02:36;102699.16;;;17.35;70.34
12247;BME280;6186;52.022;4.692;2022-07-06T07:05:03;102708.75;;;17.42;70.39
12247;BME280;6186;52.022;4.692;2022-07-06T07:07:32;102708.56;;;17.51;70.57
12247;BME280;6186;52.022;4.692;2022-07-06T07:09:59;102708.34;;;17.60;71.18
12247;BME280;6186;52.022;4.692;2022-07-06T07:12:25;102698.25;;;17.72;71.42
12247;BME280;6186;52.022;4.692;2022-07-06T07:14:50;102699.75;;;17.84;71.77
12247;BME280;6186;52.022;4.692;2022-07-06T07:17:18;102699.44;;;17.95;71.59
12247;BME280;6186;52.022;4.692;2022-07-06T07:19:44;102697.53;;;18.01;71.91
12247;BME280;6186;52.022;4.692;2022-07-06T07:22:09;102702.50;;;18.13;72.01
12247;BME280;6186;52.022;4.692;2022-07-06T07:24:34;102706.53;;;18.29;72.69
12247;BME280;6186;52.022;4.692;2022-07-06T07:27:00;102702.63;;;18.42;72.60
12247;BME280;6186;52.022;4.692;2022-07-06T07:29:25;102698.63;;;18.57;73.36
12247;BME280;6186;52.022;4.692;2022-07-06T07:31:50;102686.75;;;18.68;73.51
12247;BME280;6186;52.022;4.692;2022-07-06T07:34:16;102688.97;;;18.84;73.57
12247;BME280;6186;52.022;4.692;2022-07-06T07:36:42;102685.97;;;18.94;73.39
12247;BME280;6186;52.022;4.692;2022-07-06T07:39:07;102693.66;;;19.05;73.49
12247;BME280;6186;52.022;4.692;2022-07-06T07:41:32;102699.59;;;19.14;73.97
12247;BME280;6186;52.022;4.692;2022-07-06T07:44:02;102694.88;;;19.22;73.86
12247;BME280;6186;52.022;4.692;2022-07-06T07:46:27;102695.44;;;19.33;73.93
12247;BME280;6186;52.022;4.692;2022-07-06T07:48:52;102701.25;;;19.46;74.29
12247;BME280;6186;52.022;4.692;2022-07-06T07:51:18;102688.34;;;19.60;74.62
12247;BME280;6186;52.022;4.692;2022-07-06T07:53:44;102691.53;;;19.71;74.74
12247;BME280;6186;52.022;4.692;2022-07-06T07:56:10;102693.72;;;19.85;75.02
12247;BME280;6186;52.022;4.692;2022-07-06T07:58:35;102683.59;;;19.94;74.66
12247;BME280;6186;52.022;4.692;2022-07-06T08:01:00;102685.13;;;20.01;75.05
12247;BME280;6186;52.022;4.692;2022-07-06T08:03:26;102684.59;;;20.16;75.31
12247;BME280;6186;52.022;4.692;2022-07-06T08:05:54;102677.81;;;20.32;75.36
12247;BME280;6186;52.022;4.692;2022-07-06T08:08:20;102677.34;;;20.44;75.36
12247;BME280;6186;52.022;4.692;2022-07-06T08:10:45;102675.09;;;20.57;75.72
12247;BME280;6186;52.022;4.692;2022-07-06T08:13:11;102668.91;;;20.55;74.67
12247;BME280;6186;52.022;4.692;2022-07-06T08:15:39;102677.81;;;20.55;74.75
12247;BME280;6186;52.022;4.692;2022-07-06T08:18:05;102679.44;;;20.59;75.24
12247;BME280;6186;52.022;4.692;2022-07-06T08:20:30;102675.63;;;20.67;75.20
12247;BME280;6186;52.022;4.692;2022-07-06T08:22:56;102673.44;;;20.76;75.69
12247;BME280;6186;52.022;4.692;2022-07-06T08:25:21;102688.13;;;20.89;76.09
12247;BME280;6186;52.022;4.692;2022-07-06T08:27:46;102681.66;;;20.95;75.51
12247;BME280;6186;52.022;4.692;2022-07-06T08:30:12;102674.59;;;20.92;74.96
12247;BME280;6186;52.022;4.692;2022-07-06T08:32:39;102673.28;;;21.04;75.88
12247;BME280;6186;52.022;4.692;2022-07-06T08:35:05;102663.84;;;21.17;76.04
12247;BME280;6186;52.022;4.692;2022-07-06T08:37:30;102675.13;;;21.25;75.32
12247;BME280;6186;52.022;4.692;2022-07-06T08:39:56;102683.16;;;21.25;75.17
12247;BME280;6186;52.022;4.692;2022-07-06T08:42:21;102669.88;;;21.22;75.56
12247;BME280;6186;52.022;4.692;2022-07-06T08:44:50;102682.78;;;21.34;75.55
12247;BME280;6186;52.022;4.692;2022-07-06T08:47:18;102664.09;;;21.32;75.18
12247;BME280;6186;52.022;4.692;2022-07-06T08:49:44;102679.16;;;21.35;74.84
12247;BME280;6186;52.022;4.692;2022-07-06T08:52:10;102678.09;;;21.39;75.08
12247;BME280;6186;52.022;4.692;2022-07-06T08:54:37;102668.31;;;21.38;74.96
12247;BME280;6186;52.022;4.692;2022-07-06T08:57:03;102666.84;;;21.31;74.75
12247;BME280;6186;52.022;4.692;2022-07-06T08:59:29;102667.81;;;21.28;74.61
12247;BME280;6186;52.022;4.692;2022-07-06T09:01:55;102674.25;;;21.24;74.28
12247;BME280;6186;52.022;4.692;2022-07-06T09:04:22;102674.31;;;21.23;74.17
12247;BME280;6186;52.022;4.692;2022-07-06T09:06:48;102667.94;;;21.25;74.71
12247;BME280;6186;52.022;4.692;2022-07-06T09:09:19;102670.38;;;21.31;74.73
12247;BME280;6186;52.022;4.692;2022-07-06T09:11:45;102674.00;;;21.30;74.36
12247;BME280;6186;52.022;4.692;2022-07-06T09:14:11;102674.00;;;21.30;74.73
12247;BME280;6186;52.022;4.692;2022-07-06T09:16:36;102684.81;;;21.27;74.13
12247;BME280;6186;52.022;4.692;2022-07-06T09:19:02;102676.03;;;21.24;73.85
12247;BME280;6186;52.022;4.692;2022-07-06T09:21:29;102672.97;;;21.33;74.60
12247;BME280;6186;52.022;4.692;2022-07-06T09:23:59;102655.75;;;21.40;74.69
12247;BME280;6186;52.022;4.692;2022-07-06T09:26:25;102670.38;;;21.53;74.64
12247;BME280;6186;52.022;4.692;2022-07-06T09:28:54;102670.22;;;21.56;74.69
12247;BME280;6186;52.022;4.692;2022-07-06T09:31:20;102669.06;;;21.63;75.06
12247;BME280;6186;52.022;4.692;2022-07-06T09:36:49;102683.19;;;21.88;75.48
12247;BME280;6186;52.022;4.692;2022-07-06T09:39:27;102683.41;;;22.04;75.62
12247;BME280;6186;52.022;4.692;2022-07-06T09:42:01;102680.84;;;22.21;76.08
12247;BME280;6186;52.022;4.692;2022-07-06T09:44:33;102693.50;;;22.37;76.83
12247;BME280;6186;52.022;4.692;2022-07-06T09:47:01;102692.09;;;22.49;76.50
12247;BME280;6186;52.022;4.692;2022-07-06T09:49:27;102689.72;;;22.62;76.53
12247;BME280;6186;52.022;4.692;2022-07-06T09:51:55;102687.50;;;22.71;76.75
12247;BME280;6186;52.022;4.692;2022-07-06T09:54:20;102689.81;;;22.79;76.50
12247;BME280;6186;52.022;4.692;2022-07-06T09:56:48;102687.47;;;22.91;76.99
12247;BME280;6186;52.022;4.692;2022-07-06T09:59:17;102691.03;;;22.92;75.92
12247;BME280;6186;52.022;4.692;2022-07-06T10:01:44;102690.00;;;22.94;75.74
12247;BME280;6186;52.022;4.692;2022-07-06T10:04:11;102685.28;;;22.99;76.15
12247;BME280;6186;52.022;4.692;2022-07-06T10:06:38;102688.69;;;23.03;75.80
12247;BME280;6186;52.022;4.692;2022-07-06T10:09:09;102681.00;;;23.14;76.13
12247;BME280;6186;52.022;4.692;2022-07-06T10:11:40;102676.50;;;23.33;76.81
12247;BME280;6186;52.022;4.692;2022-07-06T10:14:07;102669.19;;;23.54;76.44
12247;BME280;6186;52.022;4.692;2022-07-06T10:16:35;102671.47;;;23.61;76.19
12247;BME280;6186;52.022;4.692;2022-07-06T10:19:03;102677.19;;;23.89;77.45
12247;BME280;6186;52.022;4.692;2022-07-06T10:21:29;102668.97;;;24.09;77.57
12247;BME280;6186;52.022;4.692;2022-07-06T10:23:55;102674.69;;;24.20;76.82
12247;BME280;6186;52.022;4.692;2022-07-06T10:26:25;102665.31;;;24.27;76.82
12247;BME280;6186;52.022;4.692;2022-07-06T10:28:51;102678.38;;;24.35;76.31
12247;BME280;6186;52.022;4.692;2022-07-06T10:31:18;102675.38;;;24.41;76.26
12247;BME280;6186;52.022;4.692;2022-07-06T10:33:45;102668.91;;;24.44;75.86
12247;BME280;6186;52.022;4.692;2022-07-06T10:36:11;102666.19;;;24.45;75.05
12247;BME280;6186;52.022;4.692;2022-07-06T10:38:37;102657.91;;;24.48;74.31
12247;BME280;6186;52.022;4.692;2022-07-06T10:41:09;102661.91;;;24.57;74.39
12247;BME280;6186;52.022;4.692;2022-07-06T10:43:41;102654.19;;;24.66;73.90
12247;BME280;6186;52.022;4.692;2022-07-06T10:46:11;102665.38;;;24.76;74.00
12247;BME280;6186;52.022;4.692;2022-07-06T10:48:44;102661.75;;;24.77;72.67
12247;BME280;6186;52.022;4.692;2022-07-06T10:51:27;102657.41;;;24.90;73.18
12247;BME280;6186;52.022;4.692;2022-07-06T10:54:09;102665.75;;;25.01;71.93
12247;BME280;6186;52.022;4.692;2022-07-06T10:56:53;102652.88;;;25.06;71.80
12247;BME280;6186;52.022;4.692;2022-07-06T10:59:23;102650.97;;;25.08;71.03
12247;BME280;6186;52.022;4.692;2022-07-06T11:02:19;102651.59;;;25.13;70.85
12247;BME280;6186;52.022;4.692;2022-07-06T11:04:48;102653.22;;;25.15;70.73
12247;BME280;6186;52.022;4.692;2022-07-06T11:07:19;102636.00;;;25.18;70.82
12247;BME280;6186;52.022;4.692;2022-07-06T11:09:58;102635.31;;;25.30;71.15
12247;BME280;6186;52.022;4.692;2022-07-06T11:12:24;102629.84;;;25.47;70.78
12247;BME280;6186;52.022;4.692;2022-07-06T11:14:51;102629.97;;;25.29;69.08
12247;BME280;6186;52.022;4.692;2022-07-06T11:17:17;102625.06;;;25.05;68.64
12247;BME280;6186;52.022;4.692;2022-07-06T11:19:55;102621.75;;;25.16;69.60
12247;BME280;6186;52.022;4.692;2022-07-06T11:22:24;102615.47;;;25.31;69.65
12247;BME280;6186;52.022;4.692;2022-07-06T11:24:52;102618.94;;;25.49;70.12
12247;BME280;6186;52.022;4.692;2022-07-06T11:27:18;102629.50;;;25.67;69.61
12247;BME280;6186;52.022;4.692;2022-07-06T11:29:43;102614.78;;;25.73;69.16
12247;BME280;6186;52.022;4.692;2022-07-06T11:32:11;102611.41;;;25.83;69.11
12247;BME280;6186;52.022;4.692;2022-07-06T11:34:39;102605.66;;;25.89;67.96
12247;BME280;6186;52.022;4.692;2022-07-06T11:37:07;102608.47;;;26.02;68.45
12247;BME280;6186;52.022;4.692;2022-07-06T11:39:34;102608.69;;;26.27;68.47
12247;BME280;6186;52.022;4.692;2022-07-06T11:42:01;102591.66;;;26.27;66.69
12247;BME280;6186;52.022;4.692;2022-07-06T11:44:29;102595.13;;;26.29;66.77
12247;BME280;6186;52.022;4.692;2022-07-06T11:46:54;102594.53;;;26.38;66.49
12247;BME280;6186;52.022;4.692;2022-07-06T11:49:21;102586.22;;;26.41;65.19
12247;BME280;6186;52.022;4.692;2022-07-06T11:51:47;102588.84;;;26.28;63.80
12247;BME280;6186;52.022;4.692;2022-07-06T11:54:17;102587.88;;;26.15;62.97
12247;BME280;6186;52.022;4.692;2022-07-06T11:56:53;102589.03;;;26.11;63.65
12247;BME280;6186;52.022;4.692;2022-07-06T11:59:24;102596.84;;;26.16;63.11
12247;BME280;6186;52.022;4.692;2022-07-06T12:01:57;102597.91;;;26.27;63.41
12247;BME280;6186;52.022;4.692;2022-07-06T12:04:24;102591.03;;;26.50;64.82
12247;BME280;6186;52.022;4.692;2022-07-06T12:06:49;102594.13;;;26.72;64.89
12247;BME280;6186;52.022;4.692;2022-07-06T12:09:15;102594.81;;;26.75;64.32
12247;BME280;6186;52.022;4.692;2022-07-06T12:11:44;102590.81;;;26.67;63.20
12247;BME280;6186;52.022;4.692;2022-07-06T12:14:20;102597.97;;;26.54;62.63
12247;BME280;6186;52.022;4.692;2022-07-06T12:16:48;102593.56;;;26.53;63.02
12247;BME280;6186;52.022;4.692;2022-07-06T12:19:14;102601.63;;;26.67;63.53
12247;BME280;6186;52.022;4.692;2022-07-06T12:21:50;102592.97;;;26.76;63.93
12247;BME280;6186;52.022;4.692;2022-07-06T12:26:44;102587.66;;;26.60;62.71
12247;BME280;6186;52.022;4.692;2022-07-06T12:29:11;102586.13;;;26.56;62.37
12247;BME280;6186;52.022;4.692;2022-07-06T12:34:23;102571.72;;;26.56;62.30
12247;BME280;6186;52.022;4.692;2022-07-06T12:36:50;102562.69;;;26.57;62.55
12247;BME280;6186;52.022;4.692;2022-07-06T12:39:19;102572.00;;;26.65;62.80
12247;BME280;6186;52.022;4.692;2022-07-06T12:41:55;102570.28;;;26.78;63.43
12247;BME280;6186;52.022;4.692;2022-07-06T12:44:24;102569.16;;;26.95;63.57
12247;BME280;6186;52.022;4.692;2022-07-06T12:47:01;102570.66;;;27.13;63.45
12247;BME280;6186;52.022;4.692;2022-07-06T12:49:27;102566.38;;;27.23;63.37
12247;BME280;6186;52.022;4.692;2022-07-06T12:51:55;102566.88;;;27.16;61.81
12247;BME280;6186;52.022;4.692;2022-07-06T12:54:22;102565.19;;;27.01;61.57
12247;BME280;6186;52.022;4.692;2022-07-06T12:59:38;102569.59;;;26.75;59.78
12247;BME280;6186;52.022;4.692;2022-07-06T13:02:05;102562.06;;;26.66;60.20
12247;BME280;6186;52.022;4.692;2022-07-06T13:04:32;102565.66;;;26.52;59.88
12247;BME280;6186;52.022;4.692;2022-07-06T13:06:59;102561.31;;;26.50;59.32
12247;BME280;6186;52.022;4.692;2022-07-06T13:09:25;102559.97;;;26.43;59.47